<?xml version='1.0' encoding='UTF-8'?><gpx version="1.1" creator="JPX - https://github.com/jenetics/jpx" xmlns="http://www.topografix.com/GPX/1/1"><trk><trkseg><trkpt lat="45.770610701515984" lon="11.71449958415155"><ele>128.99999999999997</ele><time>2026-04-19T05:43:48.984Z</time></trkpt><trkpt lat="45.77071507105918" lon="11.714468130796218"><ele>129.0</ele><time>2026-04-19T05:43:59.993Z</time></trkpt><trkpt lat="45.77078128601525" lon="11.714465857570554"><ele>129.0</ele><time>2026-04-19T05:44:04.995Z</time></trkpt><trkpt lat="45.77085406520283" lon="11.714446799114489"><ele>129.0</ele><time>2026-04-19T05:44:13.997Z</time></trkpt><trkpt lat="45.77092379868817" lon="11.714431307726148"><ele>129.0</ele><time>2026-04-19T05:44:19.998Z</time></trkpt><trkpt lat="45.770987329185644" lon="11.71443692725465"><ele>128.99999999999997</ele><time>2026-04-19T05:44:24.999Z</time></trkpt><trkpt lat="45.771027530992605" lon="11.714511731582974"><ele>129.0</ele><time>2026-04-19T05:44:34Z</time></trkpt><trkpt lat="45.7710760395298" lon="11.714582147245139"><ele>128.85714285714283</ele><time>2026-04-19T05:44:41Z</time></trkpt><trkpt lat="45.77107645093829" lon="11.714674623490744"><ele>128.71428571428572</ele><time>2026-04-19T05:44:47Z</time></trkpt><trkpt lat="45.771073672000576" lon="11.714771694522238"><ele>128.57142857142856</ele><time>2026-04-19T05:44:53Z</time></trkpt><trkpt lat="45.77109699026656" lon="11.714687440039077"><ele>128.42857142857142</ele><time>2026-04-19T05:45:03Z</time></trkpt><trkpt lat="45.77109992772448" lon="11.714585154405883"><ele>128.28571428571428</ele><time>2026-04-19T05:45:09Z</time></trkpt><trkpt lat="45.77111216848334" lon="11.714495174573656"><ele>128.14285714285714</ele><time>2026-04-19T05:45:16Z</time></trkpt><trkpt lat="45.771122518932884" lon="11.71440491088372"><ele>128.0</ele><time>2026-04-19T05:45:23Z</time></trkpt><trkpt lat="45.77113442851095" lon="11.714310150745467"><ele>127.99999999999999</ele><time>2026-04-19T05:45:29Z</time></trkpt><trkpt lat="45.77107904708867" lon="11.71443898970474"><ele>128.0</ele><time>2026-04-19T05:45:44Z</time></trkpt><trkpt lat="45.7710536074988" lon="11.714524858170194"><ele>128.0</ele><time>2026-04-19T05:45:50.001Z</time></trkpt><trkpt lat="45.77108244219952" lon="11.714605404664194"><ele>128.0</ele><time>2026-04-19T05:45:55.001Z</time></trkpt><trkpt lat="45.77107559256748" lon="11.714696320626413"><ele>127.99999999999999</ele><time>2026-04-19T05:46:00.001Z</time></trkpt><trkpt lat="45.771081856332756" lon="11.714803780433645"><ele>128.0</ele><time>2026-04-19T05:46:06Z</time></trkpt><trkpt lat="45.77106843494542" lon="11.714913953316795"><ele>128.0</ele><time>2026-04-19T05:46:12Z</time></trkpt><trkpt lat="45.77106512214058" lon="11.715027135690823"><ele>127.99999999999999</ele><time>2026-04-19T05:46:17Z</time></trkpt><trkpt lat="45.771060362837076" lon="11.715133374158622"><ele>128.0</ele><time>2026-04-19T05:46:22Z</time></trkpt><trkpt lat="45.771041681081755" lon="11.715233592239603"><ele>128.0</ele><time>2026-04-19T05:46:27Z</time></trkpt><trkpt lat="45.77103330602052" lon="11.71533651408651"><ele>127.99999999999999</ele><time>2026-04-19T05:46:32Z</time></trkpt><trkpt lat="45.77102321768269" lon="11.715436598196241"><ele>128.0</ele><time>2026-04-19T05:46:37Z</time></trkpt><trkpt lat="45.771012712410844" lon="11.715533654888183"><ele>128.0</ele><time>2026-04-19T05:46:43Z</time></trkpt><trkpt lat="45.770982491176134" lon="11.715626894251473"><ele>128.28571428571428</ele><time>2026-04-19T05:46:49Z</time></trkpt><trkpt lat="45.770964977497115" lon="11.715719801141827"><ele>128.57142857142856</ele><time>2026-04-19T05:46:54Z</time></trkpt><trkpt lat="45.77096652519894" lon="11.715820035026493"><ele>128.85714285714286</ele><time>2026-04-19T05:47:00Z</time></trkpt><trkpt lat="45.77096831738848" lon="11.715911819317373"><ele>129.14285714285714</ele><time>2026-04-19T05:47:04.999Z</time></trkpt><trkpt lat="45.77096427698334" lon="11.716017692738433"><ele>129.42857142857144</ele><time>2026-04-19T05:47:09.999Z</time></trkpt><trkpt lat="45.77098309239375" lon="11.716113119910899"><ele>129.71428571428572</ele><time>2026-04-19T05:47:15.999Z</time></trkpt><trkpt lat="45.77104382804492" lon="11.71616114856114"><ele>130.0</ele><time>2026-04-19T05:47:22.999Z</time></trkpt><trkpt lat="45.77110751450693" lon="11.716188036350042"><ele>130.14285714285717</ele><time>2026-04-19T05:47:28.999Z</time></trkpt><trkpt lat="45.77116945180186" lon="11.716225528686929"><ele>130.28571428571428</ele><time>2026-04-19T05:47:34.999Z</time></trkpt><trkpt lat="45.771221419928104" lon="11.716280472548863"><ele>130.42857142857144</ele><time>2026-04-19T05:47:39.999Z</time></trkpt><trkpt lat="45.77128218996364" lon="11.716325202779808"><ele>130.57142857142858</ele><time>2026-04-19T05:47:44.999Z</time></trkpt><trkpt lat="45.77134751035213" lon="11.71637490376314"><ele>130.71428571428572</ele><time>2026-04-19T05:47:50.999Z</time></trkpt><trkpt lat="45.771411334189786" lon="11.716441797622199"><ele>130.85714285714286</ele><time>2026-04-19T05:47:55.999Z</time></trkpt><trkpt lat="45.77146757685966" lon="11.71649259102746"><ele>131.0</ele><time>2026-04-19T05:48:00.999Z</time></trkpt><trkpt lat="45.77152463866744" lon="11.716554584365964"><ele>131.0</ele><time>2026-04-19T05:48:05.999Z</time></trkpt><trkpt lat="45.77157794528163" lon="11.716625929862401"><ele>131.0</ele><time>2026-04-19T05:48:10.999Z</time></trkpt><trkpt lat="45.77162237182417" lon="11.716696399358543"><ele>131.0</ele><time>2026-04-19T05:48:20.999Z</time></trkpt><trkpt lat="45.7716857203115" lon="11.716754667692296"><ele>131.0</ele><time>2026-04-19T05:48:27.999Z</time></trkpt><trkpt lat="45.771752401162026" lon="11.716791067005573"><ele>131.0</ele><time>2026-04-19T05:48:34.999Z</time></trkpt><trkpt lat="45.77181034603329" lon="11.716853940211458"><ele>131.0</ele><time>2026-04-19T05:48:39.999Z</time></trkpt><trkpt lat="45.771801384177415" lon="11.716950513331085"><ele>131.0</ele><time>2026-04-19T05:48:45.999Z</time></trkpt><trkpt lat="45.77179988646571" lon="11.717055013125027"><ele>131.14285714285714</ele><time>2026-04-19T05:48:51.999Z</time></trkpt><trkpt lat="45.77178772366362" lon="11.717143677242003"><ele>131.2857142857143</ele><time>2026-04-19T05:48:56.998Z</time></trkpt><trkpt lat="45.77179192225351" lon="11.717240138274095"><ele>131.42857142857144</ele><time>2026-04-19T05:49:02.998Z</time></trkpt><trkpt lat="45.77180481142758" lon="11.71734471540773"><ele>131.57142857142858</ele><time>2026-04-19T05:49:09.998Z</time></trkpt><trkpt lat="45.77180247492761" lon="11.717451505055926"><ele>131.71428571428572</ele><time>2026-04-19T05:49:15.998Z</time></trkpt><trkpt lat="45.77181498426296" lon="11.717544382330948"><ele>131.85714285714286</ele><time>2026-04-19T05:49:19.998Z</time></trkpt><trkpt lat="45.77185274954779" lon="11.717619636093735"><ele>132.0</ele><time>2026-04-19T05:49:24.998Z</time></trkpt><trkpt lat="45.77190180902022" lon="11.717702213885827"><ele>132.14285714285714</ele><time>2026-04-19T05:49:30.998Z</time></trkpt><trkpt lat="45.77195457785901" lon="11.717761142526118"><ele>132.28571428571428</ele><time>2026-04-19T05:49:36.998Z</time></trkpt><trkpt lat="45.77197791327524" lon="11.71784915160708"><ele>132.42857142857144</ele><time>2026-04-19T05:49:41.998Z</time></trkpt><trkpt lat="45.77201464846244" lon="11.717930476533589"><ele>132.57142857142856</ele><time>2026-04-19T05:49:45.998Z</time></trkpt><trkpt lat="45.77205109804778" lon="11.718004457506778"><ele>132.71428571428572</ele><time>2026-04-19T05:49:50.998Z</time></trkpt><trkpt lat="45.77210028761982" lon="11.718079738382153"><ele>132.85714285714286</ele><time>2026-04-19T05:49:54.998Z</time></trkpt><trkpt lat="45.77214403579113" lon="11.718163744607516"><ele>133.0</ele><time>2026-04-19T05:50:00.998Z</time></trkpt><trkpt lat="45.77218546886959" lon="11.718250977729614"><ele>133.0</ele><time>2026-04-19T05:50:05.998Z</time></trkpt><trkpt lat="45.772235581134396" lon="11.718317580421916"><ele>133.0</ele><time>2026-04-19T05:50:10.998Z</time></trkpt><trkpt lat="45.77226792296424" lon="11.71841286336304"><ele>133.0</ele><time>2026-04-19T05:50:16.998Z</time></trkpt><trkpt lat="45.772308680321444" lon="11.718489299901698"><ele>133.0</ele><time>2026-04-19T05:50:21.998Z</time></trkpt><trkpt lat="45.77236794679679" lon="11.71854668253252"><ele>133.0</ele><time>2026-04-19T05:50:26.998Z</time></trkpt><trkpt lat="45.77243302331549" lon="11.718576882223337"><ele>133.0</ele><time>2026-04-19T05:50:32.998Z</time></trkpt><trkpt lat="45.7724990307074" lon="11.71859021255221"><ele>133.0</ele><time>2026-04-19T05:50:38.998Z</time></trkpt><trkpt lat="45.77256782034382" lon="11.718602386230678"><ele>133.0</ele><time>2026-04-19T05:50:43.998Z</time></trkpt><trkpt lat="45.77263104669968" lon="11.718618251030257"><ele>133.0</ele><time>2026-04-19T05:50:48.997Z</time></trkpt><trkpt lat="45.77269764715639" lon="11.71864890107511"><ele>133.0</ele><time>2026-04-19T05:50:54.997Z</time></trkpt><trkpt lat="45.7727630692615" lon="11.718667326957291"><ele>133.0</ele><time>2026-04-19T05:51:00.997Z</time></trkpt><trkpt lat="45.77283174148143" lon="11.718664601126392"><ele>133.0</ele><time>2026-04-19T05:51:06.997Z</time></trkpt><trkpt lat="45.77290300625235" lon="11.718676449291108"><ele>133.0</ele><time>2026-04-19T05:51:12.997Z</time></trkpt><trkpt lat="45.77297314207387" lon="11.718677800129568"><ele>133.0</ele><time>2026-04-19T05:51:18.997Z</time></trkpt><trkpt lat="45.77304037869323" lon="11.718702489859282"><ele>133.57142857142858</ele><time>2026-04-19T05:51:23.997Z</time></trkpt><trkpt lat="45.77311369216711" lon="11.71872524877433"><ele>134.14285714285714</ele><time>2026-04-19T05:51:27.997Z</time></trkpt><trkpt lat="45.77314185729338" lon="11.718815417112749"><ele>134.71428571428572</ele><time>2026-04-19T05:51:33.997Z</time></trkpt><trkpt lat="45.77314237209738" lon="11.718916101114573"><ele>135.28571428571428</ele><time>2026-04-19T05:51:43.997Z</time></trkpt><trkpt lat="45.773151982612546" lon="11.719005554088243"><ele>135.85714285714286</ele><time>2026-04-19T05:51:48.997Z</time></trkpt><trkpt lat="45.77315396735176" lon="11.719099527555027"><ele>136.42857142857144</ele><time>2026-04-19T05:51:54.997Z</time></trkpt><trkpt lat="45.773154511241785" lon="11.719205644434947"><ele>137.0</ele><time>2026-04-19T05:52:00.997Z</time></trkpt><trkpt lat="45.77313963932669" lon="11.71929943365055"><ele>137.00000000000003</ele><time>2026-04-19T05:52:07.997Z</time></trkpt><trkpt lat="45.77314815083846" lon="11.719393713245713"><ele>137.0</ele><time>2026-04-19T05:52:16.997Z</time></trkpt><trkpt lat="45.773134576048406" lon="11.719484674875842"><ele>137.0</ele><time>2026-04-19T05:52:21.997Z</time></trkpt><trkpt lat="45.77311658080996" lon="11.719575752917443"><ele>137.0</ele><time>2026-04-19T05:52:26.997Z</time></trkpt><trkpt lat="45.77310156180701" lon="11.71969981858263"><ele>137.0</ele><time>2026-04-19T05:52:33.997Z</time></trkpt><trkpt lat="45.7730865710602" lon="11.719804545429627"><ele>137.00000000000003</ele><time>2026-04-19T05:52:39.997Z</time></trkpt><trkpt lat="45.77307670236647" lon="11.7199077938252"><ele>137.0</ele><time>2026-04-19T05:52:46.996Z</time></trkpt><trkpt lat="45.773062358566406" lon="11.720012611837062"><ele>136.85714285714286</ele><time>2026-04-19T05:52:52.996Z</time></trkpt><trkpt lat="45.77305558144969" lon="11.72011450555681"><ele>136.71428571428572</ele><time>2026-04-19T05:52:58.996Z</time></trkpt><trkpt lat="45.77303237451342" lon="11.720209361546182"><ele>136.57142857142856</ele><time>2026-04-19T05:53:06.996Z</time></trkpt><trkpt lat="45.773018116380754" lon="11.720308920564259"><ele>136.42857142857144</ele><time>2026-04-19T05:53:13.996Z</time></trkpt><trkpt lat="45.773007872145975" lon="11.720403125429744"><ele>136.28571428571428</ele><time>2026-04-19T05:53:20.996Z</time></trkpt><trkpt lat="45.772979033421336" lon="11.720491375976954"><ele>136.14285714285714</ele><time>2026-04-19T05:53:26.996Z</time></trkpt><trkpt lat="45.772947036004794" lon="11.720580953989353"><ele>136.0</ele><time>2026-04-19T05:53:33.996Z</time></trkpt><trkpt lat="45.77293437540187" lon="11.7206837091097"><ele>135.7142857142857</ele><time>2026-04-19T05:53:40.996Z</time></trkpt><trkpt lat="45.77291678951898" lon="11.72077060060692"><ele>135.42857142857142</ele><time>2026-04-19T05:53:46.996Z</time></trkpt><trkpt lat="45.77288961635588" lon="11.720857992713873"><ele>135.14285714285714</ele><time>2026-04-19T05:53:52.996Z</time></trkpt><trkpt lat="45.77285550646132" lon="11.72095286999888"><ele>134.85714285714283</ele><time>2026-04-19T05:53:58.996Z</time></trkpt><trkpt lat="45.77283475228126" lon="11.721038680809889"><ele>134.57142857142856</ele><time>2026-04-19T05:54:03.996Z</time></trkpt><trkpt lat="45.7727997701295" lon="11.72113082769962"><ele>134.28571428571428</ele><time>2026-04-19T05:54:09.996Z</time></trkpt><trkpt lat="45.772767232350425" lon="11.721220725821368"><ele>134.0</ele><time>2026-04-19T05:54:15.996Z</time></trkpt><trkpt lat="45.77273564429546" lon="11.72130615710865"><ele>134.0</ele><time>2026-04-19T05:54:22.996Z</time></trkpt><trkpt lat="45.772698332657775" lon="11.721391773057633"><ele>134.0</ele><time>2026-04-19T05:54:29.996Z</time></trkpt><trkpt lat="45.772654410190974" lon="11.721473492869654"><ele>134.0</ele><time>2026-04-19T05:54:36.995Z</time></trkpt><trkpt lat="45.77263277974396" lon="11.721564219087552"><ele>134.0</ele><time>2026-04-19T05:54:41.995Z</time></trkpt><trkpt lat="45.77261563693605" lon="11.721653910377103"><ele>134.0</ele><time>2026-04-19T05:54:49.995Z</time></trkpt><trkpt lat="45.77268507942973" lon="11.721645478309604"><ele>134.0</ele><time>2026-04-19T05:54:55.995Z</time></trkpt><trkpt lat="45.77275178386169" lon="11.721663561367793"><ele>134.0</ele><time>2026-04-19T05:55:02.995Z</time></trkpt><trkpt lat="45.7728148422294" lon="11.721702228572125"><ele>134.0</ele><time>2026-04-19T05:55:08.995Z</time></trkpt><trkpt lat="45.7728765692532" lon="11.721728469492666"><ele>134.0</ele><time>2026-04-19T05:55:14.995Z</time></trkpt><trkpt lat="45.77295640200274" lon="11.72173814576088"><ele>134.0</ele><time>2026-04-19T05:55:21.995Z</time></trkpt><trkpt lat="45.773021038135205" lon="11.721750729192594"><ele>134.0</ele><time>2026-04-19T05:55:26.995Z</time></trkpt><trkpt lat="45.77308897906805" lon="11.721745810700874"><ele>134.0</ele><time>2026-04-19T05:55:32.995Z</time></trkpt><trkpt lat="45.77315328191808" lon="11.721747591750555"><ele>134.0</ele><time>2026-04-19T05:55:37.995Z</time></trkpt><trkpt lat="45.77321956977769" lon="11.721762573253795"><ele>134.0</ele><time>2026-04-19T05:55:43.995Z</time></trkpt><trkpt lat="45.77328162084765" lon="11.721779698856071"><ele>134.0</ele><time>2026-04-19T05:55:48.995Z</time></trkpt><trkpt lat="45.77334395510066" lon="11.721792786617911"><ele>134.0</ele><time>2026-04-19T05:55:53.995Z</time></trkpt><trkpt lat="45.77341048088849" lon="11.72177411522772"><ele>134.0</ele><time>2026-04-19T05:55:58.995Z</time></trkpt><trkpt lat="45.77348419113204" lon="11.7217873455566"><ele>134.0</ele><time>2026-04-19T05:56:04.995Z</time></trkpt><trkpt lat="45.773546758672744" lon="11.721764555372525"><ele>134.0</ele><time>2026-04-19T05:56:10.995Z</time></trkpt><trkpt lat="45.77361356832721" lon="11.721771467046501"><ele>134.0</ele><time>2026-04-19T05:56:16.995Z</time></trkpt><trkpt lat="45.77368564960002" lon="11.721762541552467"><ele>134.0</ele><time>2026-04-19T05:56:22.995Z</time></trkpt><trkpt lat="45.77375203606548" lon="11.721752917372049"><ele>134.42857142857144</ele><time>2026-04-19T05:56:27.994Z</time></trkpt><trkpt lat="45.773817919856135" lon="11.721727857735601"><ele>134.85714285714286</ele><time>2026-04-19T05:56:33.994Z</time></trkpt><trkpt lat="45.77388221572413" lon="11.721694868510754"><ele>135.28571428571428</ele><time>2026-04-19T05:56:39.994Z</time></trkpt><trkpt lat="45.77395330435458" lon="11.721691095783576"><ele>135.71428571428572</ele><time>2026-04-19T05:56:45.994Z</time></trkpt><trkpt lat="45.77402255163312" lon="11.721636413505575"><ele>136.14285714285714</ele><time>2026-04-19T05:56:51.994Z</time></trkpt><trkpt lat="45.774089014231016" lon="11.721610848356999"><ele>136.57142857142858</ele><time>2026-04-19T05:56:57.994Z</time></trkpt><trkpt lat="45.77415766622845" lon="11.721592053437064"><ele>137.0</ele><time>2026-04-19T05:57:02.994Z</time></trkpt><trkpt lat="45.77422352315611" lon="11.721592576861976"><ele>137.00000000000003</ele><time>2026-04-19T05:57:09.994Z</time></trkpt><trkpt lat="45.77429455041324" lon="11.721570511732073"><ele>137.0</ele><time>2026-04-19T05:57:32.994Z</time></trkpt><trkpt lat="45.77435980576191" lon="11.721561701043537"><ele>137.0</ele><time>2026-04-19T05:57:37.994Z</time></trkpt><trkpt lat="45.77443066012538" lon="11.721557374412559"><ele>137.0</ele><time>2026-04-19T05:57:43.994Z</time></trkpt><trkpt lat="45.77451259929862" lon="11.721551990523304"><ele>137.0</ele><time>2026-04-19T05:57:50.994Z</time></trkpt><trkpt lat="45.77458965060388" lon="11.721540932377188"><ele>137.00000000000003</ele><time>2026-04-19T05:57:56.994Z</time></trkpt><trkpt lat="45.77465364530182" lon="11.721510814142007"><ele>137.0</ele><time>2026-04-19T05:58:02.994Z</time></trkpt><trkpt lat="45.77472487869917" lon="11.721500168576306"><ele>137.2857142857143</ele><time>2026-04-19T05:58:08.994Z</time></trkpt><trkpt lat="45.77479364670029" lon="11.721481456045732"><ele>137.57142857142858</ele><time>2026-04-19T05:58:13.994Z</time></trkpt><trkpt lat="45.77485974690481" lon="11.721454082871098"><ele>137.85714285714286</ele><time>2026-04-19T05:58:19.994Z</time></trkpt><trkpt lat="45.77493668296581" lon="11.72144843696864"><ele>138.14285714285717</ele><time>2026-04-19T05:58:24.993Z</time></trkpt><trkpt lat="45.775006524025095" lon="11.721439348182145"><ele>138.42857142857144</ele><time>2026-04-19T05:58:30.993Z</time></trkpt><trkpt lat="45.775082222392435" lon="11.721413029813897"><ele>138.71428571428572</ele><time>2026-04-19T05:58:36.993Z</time></trkpt><trkpt lat="45.77515334780873" lon="11.721415111021857"><ele>139.0</ele><time>2026-04-19T05:58:43.993Z</time></trkpt><trkpt lat="45.775207657221216" lon="11.721462787631111"><ele>138.28571428571428</ele><time>2026-04-19T05:58:49.993Z</time></trkpt><trkpt lat="45.77526401204128" lon="11.721412549276428"><ele>137.57142857142858</ele><time>2026-04-19T05:58:54.993Z</time></trkpt><trkpt lat="45.775325571574925" lon="11.721361214390848"><ele>136.85714285714286</ele><time>2026-04-19T05:58:59.993Z</time></trkpt><trkpt lat="45.775388712854294" lon="11.72133905937625"><ele>136.14285714285714</ele><time>2026-04-19T05:59:07.993Z</time></trkpt><trkpt lat="45.775462023202465" lon="11.721347872784165"><ele>135.42857142857142</ele><time>2026-04-19T05:59:12.993Z</time></trkpt><trkpt lat="45.77552910052582" lon="11.721354688877664"><ele>134.71428571428572</ele><time>2026-04-19T05:59:18.993Z</time></trkpt><trkpt lat="45.775594912314666" lon="11.721356488764147"><ele>134.0</ele><time>2026-04-19T05:59:23.993Z</time></trkpt><trkpt lat="45.775669437563025" lon="11.72134424893969"><ele>134.0</ele><time>2026-04-19T05:59:30.993Z</time></trkpt><trkpt lat="45.77573152417921" lon="11.721326057176633"><ele>134.0</ele><time>2026-04-19T05:59:38.993Z</time></trkpt><trkpt lat="45.77580298363017" lon="11.721317906988592"><ele>134.0</ele><time>2026-04-19T05:59:46.993Z</time></trkpt><trkpt lat="45.77587049870761" lon="11.721328956359747"><ele>134.0</ele><time>2026-04-19T05:59:53.993Z</time></trkpt><trkpt lat="45.77593701167385" lon="11.721355159672298"><ele>134.0</ele><time>2026-04-19T06:00:00.993Z</time></trkpt><trkpt lat="45.775982998631484" lon="11.721420239343464"><ele>134.0</ele><time>2026-04-19T06:00:06.993Z</time></trkpt><trkpt lat="45.776031805126095" lon="11.721515080371708"><ele>134.0</ele><time>2026-04-19T06:00:13.992Z</time></trkpt><trkpt lat="45.77606094305798" lon="11.721599113314914"><ele>134.14285714285714</ele><time>2026-04-19T06:00:19.992Z</time></trkpt><trkpt lat="45.77608493021566" lon="11.721686946151054"><ele>134.28571428571428</ele><time>2026-04-19T06:00:29.992Z</time></trkpt><trkpt lat="45.77610058388246" lon="11.721780874165237"><ele>134.42857142857142</ele><time>2026-04-19T06:00:44.992Z</time></trkpt><trkpt lat="45.77608888385423" lon="11.721875633326016"><ele>134.57142857142856</ele><time>2026-04-19T06:00:51.992Z</time></trkpt><trkpt lat="45.77608326967047" lon="11.721967248735053"><ele>134.7142857142857</ele><time>2026-04-19T06:00:58.992Z</time></trkpt><trkpt lat="45.77604963705298" lon="11.722056956319546"><ele>134.85714285714286</ele><time>2026-04-19T06:01:05.992Z</time></trkpt><trkpt lat="45.77600068616034" lon="11.722131766475558"><ele>135.0</ele><time>2026-04-19T06:01:12.992Z</time></trkpt><trkpt lat="45.77596269401637" lon="11.722213540334891"><ele>135.0</ele><time>2026-04-19T06:01:18.992Z</time></trkpt><trkpt lat="45.77591979016891" lon="11.72229585045295"><ele>135.0</ele><time>2026-04-19T06:01:26.992Z</time></trkpt><trkpt lat="45.77589763990226" lon="11.722383626482804"><ele>135.0</ele><time>2026-04-19T06:01:32.992Z</time></trkpt><trkpt lat="45.77586592330946" lon="11.722462419227522"><ele>135.0</ele><time>2026-04-19T06:01:38.992Z</time></trkpt><trkpt lat="45.7758305545345" lon="11.722541344029397"><ele>135.0</ele><time>2026-04-19T06:01:43.992Z</time></trkpt><trkpt lat="45.775814152737645" lon="11.722651487727033"><ele>135.0</ele><time>2026-04-19T06:01:50.992Z</time></trkpt><trkpt lat="45.77580334136388" lon="11.722755139924157"><ele>135.0</ele><time>2026-04-19T06:01:56.992Z</time></trkpt><trkpt lat="45.775783400843196" lon="11.722853173827636"><ele>134.57142857142856</ele><time>2026-04-19T06:02:03.992Z</time></trkpt><trkpt lat="45.77577995141541" lon="11.722951623670404"><ele>134.14285714285714</ele><time>2026-04-19T06:02:08.991Z</time></trkpt><trkpt lat="45.77578242240803" lon="11.72306892796392"><ele>133.71428571428572</ele><time>2026-04-19T06:02:15.991Z</time></trkpt><trkpt lat="45.77577142855291" lon="11.723167223083964"><ele>133.28571428571428</ele><time>2026-04-19T06:02:21.991Z</time></trkpt><trkpt lat="45.77575292822131" lon="11.723262281137524"><ele>132.85714285714286</ele><time>2026-04-19T06:02:25.991Z</time></trkpt><trkpt lat="45.775753770502774" lon="11.723363389938127"><ele>132.42857142857142</ele><time>2026-04-19T06:02:32.991Z</time></trkpt><trkpt lat="45.77573101067829" lon="11.723458325940408"><ele>132.0</ele><time>2026-04-19T06:02:37.991Z</time></trkpt><trkpt lat="45.775740685758585" lon="11.723562354372678"><ele>131.14285714285714</ele><time>2026-04-19T06:02:43.991Z</time></trkpt><trkpt lat="45.775742484358965" lon="11.723656402381367"><ele>130.28571428571428</ele><time>2026-04-19T06:02:49.991Z</time></trkpt><trkpt lat="45.77572333267875" lon="11.723755438660197"><ele>129.42857142857144</ele><time>2026-04-19T06:02:55.991Z</time></trkpt><trkpt lat="45.7757064400131" lon="11.72384423773046"><ele>128.57142857142856</ele><time>2026-04-19T06:03:03.991Z</time></trkpt><trkpt lat="45.775676693921476" lon="11.723935067878468"><ele>127.71428571428572</ele><time>2026-04-19T06:03:08.991Z</time></trkpt><trkpt lat="45.77565695023133" lon="11.724024351633494"><ele>126.85714285714286</ele><time>2026-04-19T06:03:13.991Z</time></trkpt><trkpt lat="45.77564179047963" lon="11.724124983695585"><ele>126.0</ele><time>2026-04-19T06:03:17.991Z</time></trkpt><trkpt lat="45.77562659721549" lon="11.724216417922005"><ele>126.0</ele><time>2026-04-19T06:03:22.991Z</time></trkpt><trkpt lat="45.775602575621" lon="11.724309927317536"><ele>126.0</ele><time>2026-04-19T06:03:30.991Z</time></trkpt><trkpt lat="45.77556330495572" lon="11.724390738555012"><ele>126.0</ele><time>2026-04-19T06:03:37.991Z</time></trkpt><trkpt lat="45.775512091128554" lon="11.724460232745473"><ele>126.0</ele><time>2026-04-19T06:03:43.991Z</time></trkpt><trkpt lat="45.77547412311706" lon="11.724551171362538"><ele>126.0</ele><time>2026-04-19T06:03:48.991Z</time></trkpt><trkpt lat="45.77542587090502" lon="11.724622541926419"><ele>126.0</ele><time>2026-04-19T06:03:55.991Z</time></trkpt><trkpt lat="45.77537865402505" lon="11.72469743677981"><ele>126.0</ele><time>2026-04-19T06:04:00.99Z</time></trkpt><trkpt lat="45.77532536506729" lon="11.724767095305195"><ele>126.14285714285714</ele><time>2026-04-19T06:04:04.99Z</time></trkpt><trkpt lat="45.77526747363349" lon="11.724827329615971"><ele>126.28571428571428</ele><time>2026-04-19T06:04:09.99Z</time></trkpt><trkpt lat="45.77522977384846" lon="11.724902526967327"><ele>126.42857142857143</ele><time>2026-04-19T06:04:17.99Z</time></trkpt><trkpt lat="45.77518804476073" lon="11.724974473471187"><ele>126.57142857142857</ele><time>2026-04-19T06:04:24.99Z</time></trkpt><trkpt lat="45.77513424790006" lon="11.725028413410953"><ele>126.71428571428571</ele><time>2026-04-19T06:04:29.99Z</time></trkpt><trkpt lat="45.77508985287884" lon="11.725113585606355"><ele>126.85714285714286</ele><time>2026-04-19T06:04:35.99Z</time></trkpt><trkpt lat="45.77503885783405" lon="11.72517021801752"><ele>127.0</ele><time>2026-04-19T06:04:39.99Z</time></trkpt><trkpt lat="45.775003269186215" lon="11.72525913654064"><ele>127.0</ele><time>2026-04-19T06:04:45.99Z</time></trkpt><trkpt lat="45.77495148148085" lon="11.725330304518785"><ele>127.0</ele><time>2026-04-19T06:04:51.99Z</time></trkpt><trkpt lat="45.77490110322568" lon="11.725403194006049"><ele>127.0</ele><time>2026-04-19T06:04:56.99Z</time></trkpt><trkpt lat="45.77485761063166" lon="11.725473007278401"><ele>127.0</ele><time>2026-04-19T06:05:02.99Z</time></trkpt><trkpt lat="45.77480954349149" lon="11.725544827332662"><ele>127.0</ele><time>2026-04-19T06:05:07.99Z</time></trkpt><trkpt lat="45.77475311268172" lon="11.725592610280914"><ele>127.0</ele><time>2026-04-19T06:05:11.99Z</time></trkpt><trkpt lat="45.77468724561429" lon="11.725598001048645"><ele>127.0</ele><time>2026-04-19T06:05:29.99Z</time></trkpt><trkpt lat="45.77463191233264" lon="11.725553225830025"><ele>127.0</ele><time>2026-04-19T06:05:35.99Z</time></trkpt><trkpt lat="45.77456723021761" lon="11.725549775384104"><ele>127.0</ele><time>2026-04-19T06:05:41.99Z</time></trkpt><trkpt lat="45.774503709475105" lon="11.725500093825175"><ele>127.0</ele><time>2026-04-19T06:05:47.99Z</time></trkpt><trkpt lat="45.774437551433195" lon="11.725482951337948"><ele>127.0</ele><time>2026-04-19T06:05:53.989Z</time></trkpt><trkpt lat="45.77437331277842" lon="11.725445306602593"><ele>127.0</ele><time>2026-04-19T06:05:59.002Z</time></trkpt><trkpt lat="45.77431989680255" lon="11.725396895075145"><ele>127.0</ele><time>2026-04-19T06:06:04.002Z</time></trkpt><trkpt lat="45.77426038118824" lon="11.7253582145045"><ele>127.0</ele><time>2026-04-19T06:06:08.002Z</time></trkpt><trkpt lat="45.774198755556164" lon="11.725326407727893"><ele>127.57142857142858</ele><time>2026-04-19T06:06:13.002Z</time></trkpt><trkpt lat="45.77414579639686" lon="11.72527744755559"><ele>128.14285714285714</ele><time>2026-04-19T06:06:21.002Z</time></trkpt><trkpt lat="45.77409431992307" lon="11.725209721960281"><ele>128.71428571428572</ele><time>2026-04-19T06:06:27.002Z</time></trkpt><trkpt lat="45.77401603302443" lon="11.725180500727811"><ele>129.28571428571428</ele><time>2026-04-19T06:06:33.002Z</time></trkpt><trkpt lat="45.773962208413224" lon="11.72512201254624"><ele>129.85714285714286</ele><time>2026-04-19T06:06:39.002Z</time></trkpt><trkpt lat="45.77389903067589" lon="11.725077551783055"><ele>130.42857142857144</ele><time>2026-04-19T06:06:46.002Z</time></trkpt><trkpt lat="45.77383290325202" lon="11.725050700126406"><ele>131.0</ele><time>2026-04-19T06:06:51.003Z</time></trkpt><trkpt lat="45.77376617206718" lon="11.725006273850456"><ele>131.28571428571428</ele><time>2026-04-19T06:06:57.003Z</time></trkpt><trkpt lat="45.77370350621037" lon="11.724961130486601"><ele>131.57142857142858</ele><time>2026-04-19T06:07:04.002Z</time></trkpt><trkpt lat="45.77365436981608" lon="11.724898641479179"><ele>131.85714285714286</ele><time>2026-04-19T06:07:10.002Z</time></trkpt><trkpt lat="45.773598158014586" lon="11.724843837857279"><ele>132.14285714285714</ele><time>2026-04-19T06:07:15.002Z</time></trkpt><trkpt lat="45.773541472651274" lon="11.72478439366746"><ele>132.42857142857144</ele><time>2026-04-19T06:07:21.002Z</time></trkpt><trkpt lat="45.77347263133031" lon="11.724715703566702"><ele>132.71428571428572</ele><time>2026-04-19T06:07:28.002Z</time></trkpt><trkpt lat="45.77340158894343" lon="11.724680609274202"><ele>133.0</ele><time>2026-04-19T06:07:34.002Z</time></trkpt><trkpt lat="45.773336032773635" lon="11.724654279305614"><ele>133.0</ele><time>2026-04-19T06:07:39.002Z</time></trkpt><trkpt lat="45.77328316904044" lon="11.72459519862804"><ele>133.0</ele><time>2026-04-19T06:07:47.002Z</time></trkpt><trkpt lat="45.773226389096884" lon="11.724539367698252"><ele>133.0</ele><time>2026-04-19T06:07:52.002Z</time></trkpt><trkpt lat="45.77316896450045" lon="11.724461833483948"><ele>133.0</ele><time>2026-04-19T06:07:59.002Z</time></trkpt><trkpt lat="45.7731250844596" lon="11.724392649375067"><ele>133.0</ele><time>2026-04-19T06:08:05.002Z</time></trkpt><trkpt lat="45.773084339802935" lon="11.72431794172188"><ele>133.0</ele><time>2026-04-19T06:08:10.002Z</time></trkpt><trkpt lat="45.773039232492565" lon="11.724242700460527"><ele>133.0</ele><time>2026-04-19T06:08:16.002Z</time></trkpt><trkpt lat="45.772975435908236" lon="11.724185404532099"><ele>134.0</ele><time>2026-04-19T06:08:22.002Z</time></trkpt><trkpt lat="45.77293627961398" lon="11.724104313783718"><ele>135.0</ele><time>2026-04-19T06:08:29.002Z</time></trkpt><trkpt lat="45.77287851904619" lon="11.724059957093107"><ele>136.0</ele><time>2026-04-19T06:08:40.002Z</time></trkpt><trkpt lat="45.77284359115866" lon="11.723977608000366"><ele>137.0</ele><time>2026-04-19T06:08:46.002Z</time></trkpt><trkpt lat="45.77280636027668" lon="11.72389043952162"><ele>138.0</ele><time>2026-04-19T06:08:52.003Z</time></trkpt><trkpt lat="45.77277176469113" lon="11.723812048815613"><ele>139.0</ele><time>2026-04-19T06:08:58.003Z</time></trkpt><trkpt lat="45.772737659512394" lon="11.72373555115887"><ele>140.0</ele><time>2026-04-19T06:09:03.003Z</time></trkpt><trkpt lat="45.77270253943722" lon="11.723647795740533"><ele>139.0</ele><time>2026-04-19T06:09:08.003Z</time></trkpt><trkpt lat="45.77267796795422" lon="11.723556218075972"><ele>138.0</ele><time>2026-04-19T06:09:13.003Z</time></trkpt><trkpt lat="45.77264587234676" lon="11.723468664107823"><ele>137.0</ele><time>2026-04-19T06:09:19.003Z</time></trkpt><trkpt lat="45.772602260773276" lon="11.723397546278052"><ele>136.0</ele><time>2026-04-19T06:09:25.003Z</time></trkpt><trkpt lat="45.77253614381079" lon="11.723329112684137"><ele>135.0</ele><time>2026-04-19T06:09:30.003Z</time></trkpt><trkpt lat="45.77247961119369" lon="11.723259808129551"><ele>134.0</ele><time>2026-04-19T06:09:35.003Z</time></trkpt><trkpt lat="45.77242885264658" lon="11.723205734735885"><ele>133.0</ele><time>2026-04-19T06:09:39.003Z</time></trkpt><trkpt lat="45.772375342180624" lon="11.723147415363206"><ele>133.0</ele><time>2026-04-19T06:09:44.003Z</time></trkpt><trkpt lat="45.77231839232764" lon="11.723071494241076"><ele>133.0</ele><time>2026-04-19T06:09:51.002Z</time></trkpt><trkpt lat="45.77226675552963" lon="11.72300071297554"><ele>133.0</ele><time>2026-04-19T06:09:56.002Z</time></trkpt><trkpt lat="45.77221765245744" lon="11.722939120101062"><ele>133.0</ele><time>2026-04-19T06:10:02.002Z</time></trkpt><trkpt lat="45.772235477238354" lon="11.722841315580068"><ele>133.0</ele><time>2026-04-19T06:10:12.002Z</time></trkpt><trkpt lat="45.77228689126324" lon="11.722771892300472"><ele>133.0</ele><time>2026-04-19T06:10:18.002Z</time></trkpt><trkpt lat="45.772336161025535" lon="11.722710933221137"><ele>133.0</ele><time>2026-04-19T06:10:24.002Z</time></trkpt><trkpt lat="45.77237304509944" lon="11.722632303242786"><ele>132.85714285714286</ele><time>2026-04-19T06:10:30.002Z</time></trkpt><trkpt lat="45.77242611482285" lon="11.722553464596233"><ele>132.71428571428572</ele><time>2026-04-19T06:10:35.002Z</time></trkpt><trkpt lat="45.77245602584311" lon="11.722451182151678"><ele>132.57142857142856</ele><time>2026-04-19T06:10:41.002Z</time></trkpt><trkpt lat="45.77248567081603" lon="11.722371417762266"><ele>132.42857142857144</ele><time>2026-04-19T06:10:45.002Z</time></trkpt><trkpt lat="45.772500600416485" lon="11.722270230616692"><ele>132.28571428571428</ele><time>2026-04-19T06:10:50.002Z</time></trkpt><trkpt lat="45.772509285367036" lon="11.722170921883144"><ele>132.14285714285714</ele><time>2026-04-19T06:10:55.002Z</time></trkpt><trkpt lat="45.77251996123402" lon="11.722063107473653"><ele>132.0</ele><time>2026-04-19T06:11:02.003Z</time></trkpt><trkpt lat="45.77254606357698" lon="11.7219739733334"><ele>131.85714285714286</ele><time>2026-04-19T06:11:07.004Z</time></trkpt><trkpt lat="45.772563303521345" lon="11.721881364705856"><ele>131.71428571428572</ele><time>2026-04-19T06:11:13.003Z</time></trkpt><trkpt lat="45.7725861474895" lon="11.721793394122018"><ele>131.57142857142858</ele><time>2026-04-19T06:11:18.003Z</time></trkpt><trkpt lat="45.772607979661586" lon="11.721699738531829"><ele>131.42857142857144</ele><time>2026-04-19T06:11:24.003Z</time></trkpt><trkpt lat="45.772637813823735" lon="11.72160782598785"><ele>131.2857142857143</ele><time>2026-04-19T06:11:30.003Z</time></trkpt><trkpt lat="45.772679766009105" lon="11.721529400764465"><ele>131.14285714285714</ele><time>2026-04-19T06:11:35.003Z</time></trkpt><trkpt lat="45.772720338660626" lon="11.721455046131183"><ele>131.0</ele><time>2026-04-19T06:11:41.003Z</time></trkpt><trkpt lat="45.772761050886196" lon="11.721376057162102"><ele>131.28571428571428</ele><time>2026-04-19T06:11:46.003Z</time></trkpt><trkpt lat="45.77279976533565" lon="11.721304670959695"><ele>131.57142857142858</ele><time>2026-04-19T06:11:51.003Z</time></trkpt><trkpt lat="45.77282825281845" lon="11.721216796063974"><ele>131.85714285714286</ele><time>2026-04-19T06:11:56.003Z</time></trkpt><trkpt lat="45.77286073997886" lon="11.72112944536579"><ele>132.14285714285714</ele><time>2026-04-19T06:12:01.003Z</time></trkpt><trkpt lat="45.77288005038297" lon="11.721034369882627"><ele>132.42857142857144</ele><time>2026-04-19T06:12:07.003Z</time></trkpt><trkpt lat="45.77290754586639" lon="11.720949591564125"><ele>132.71428571428572</ele><time>2026-04-19T06:12:12.002Z</time></trkpt><trkpt lat="45.772936667340645" lon="11.72084309452978"><ele>133.0</ele><time>2026-04-19T06:12:17.002Z</time></trkpt><trkpt lat="45.7729514523512" lon="11.72075455558056"><ele>133.0</ele><time>2026-04-19T06:12:22.002Z</time></trkpt><trkpt lat="45.772971626508316" lon="11.720653431003653"><ele>133.0</ele><time>2026-04-19T06:12:27.002Z</time></trkpt><trkpt lat="45.77300117579441" lon="11.720554240487823"><ele>133.0</ele><time>2026-04-19T06:12:32.002Z</time></trkpt><trkpt lat="45.7730218569987" lon="11.720459747111622"><ele>133.0</ele><time>2026-04-19T06:12:37.002Z</time></trkpt><trkpt lat="45.77303570218972" lon="11.720358468660155"><ele>133.0</ele><time>2026-04-19T06:12:42.002Z</time></trkpt><trkpt lat="45.77304209556497" lon="11.720264175747646"><ele>133.0</ele><time>2026-04-19T06:12:47.002Z</time></trkpt><trkpt lat="45.773052752049246" lon="11.720172601755504"><ele>133.0</ele><time>2026-04-19T06:12:52.002Z</time></trkpt><trkpt lat="45.77307986286122" lon="11.720090673351116"><ele>133.42857142857142</ele><time>2026-04-19T06:12:56.002Z</time></trkpt><trkpt lat="45.773092368252186" lon="11.71999557549963"><ele>133.85714285714286</ele><time>2026-04-19T06:13:02.002Z</time></trkpt><trkpt lat="45.77309626050719" lon="11.719891698890942"><ele>134.28571428571428</ele><time>2026-04-19T06:13:08.003Z</time></trkpt><trkpt lat="45.77310829008031" lon="11.719780505155516"><ele>134.71428571428572</ele><time>2026-04-19T06:13:14.003Z</time></trkpt><trkpt lat="45.77311427823479" lon="11.719683509303957"><ele>135.14285714285714</ele><time>2026-04-19T06:13:23.003Z</time></trkpt><trkpt lat="45.77312150413149" lon="11.719589091846236"><ele>135.57142857142856</ele><time>2026-04-19T06:13:28.003Z</time></trkpt><trkpt lat="45.773128091775064" lon="11.719492031846158"><ele>136.0</ele><time>2026-04-19T06:13:34.003Z</time></trkpt><trkpt lat="45.77314319186994" lon="11.719401362437061"><ele>136.14285714285714</ele><time>2026-04-19T06:13:39.002Z</time></trkpt><trkpt lat="45.773150148332036" lon="11.71930655204648"><ele>136.28571428571428</ele><time>2026-04-19T06:13:44.002Z</time></trkpt><trkpt lat="45.77314699349516" lon="11.719209887956803"><ele>136.42857142857144</ele><time>2026-04-19T06:13:49.002Z</time></trkpt><trkpt lat="45.77315064878539" lon="11.719111520321274"><ele>136.57142857142856</ele><time>2026-04-19T06:13:54.002Z</time></trkpt><trkpt lat="45.77315436991086" lon="11.719016746374544"><ele>136.71428571428572</ele><time>2026-04-19T06:13:59.002Z</time></trkpt><trkpt lat="45.773164877920976" lon="11.71891398205658"><ele>136.85714285714286</ele><time>2026-04-19T06:14:05.002Z</time></trkpt><trkpt lat="45.77316351857927" lon="11.718810930656565"><ele>137.0</ele><time>2026-04-19T06:14:10.002Z</time></trkpt><trkpt lat="45.773140781429234" lon="11.718715598239905"><ele>137.00000000000003</ele><time>2026-04-19T06:14:16.002Z</time></trkpt><trkpt lat="45.77307768828584" lon="11.718695496702097"><ele>137.0</ele><time>2026-04-19T06:14:21.002Z</time></trkpt><trkpt lat="45.773013824421724" lon="11.71867916211658"><ele>137.0</ele><time>2026-04-19T06:14:26.002Z</time></trkpt><trkpt lat="45.77294812760667" lon="11.718660769910366"><ele>137.0</ele><time>2026-04-19T06:14:31.002Z</time></trkpt><trkpt lat="45.77287438410713" lon="11.718629343418613"><ele>137.0</ele><time>2026-04-19T06:14:36.002Z</time></trkpt><trkpt lat="45.77281944108551" lon="11.718583545130306"><ele>137.00000000000003</ele><time>2026-04-19T06:14:40.002Z</time></trkpt><trkpt lat="45.77275592403305" lon="11.718548958551654"><ele>137.0</ele><time>2026-04-19T06:14:47.002Z</time></trkpt><trkpt lat="45.77268809945316" lon="11.718553632201262"><ele>136.42857142857144</ele><time>2026-04-19T06:14:52.002Z</time></trkpt><trkpt lat="45.772624931777806" lon="11.718534864157922"><ele>135.85714285714286</ele><time>2026-04-19T06:14:56.002Z</time></trkpt><trkpt lat="45.77255587886579" lon="11.718536332710784"><ele>135.28571428571428</ele><time>2026-04-19T06:15:01.002Z</time></trkpt><trkpt lat="45.77248338642072" lon="11.71852848390266"><ele>134.71428571428572</ele><time>2026-04-19T06:15:06.002Z</time></trkpt><trkpt lat="45.77241717809088" lon="11.718526990232105"><ele>134.14285714285714</ele><time>2026-04-19T06:15:11.004Z</time></trkpt><trkpt lat="45.77237125088702" lon="11.718465043221785"><ele>133.57142857142858</ele><time>2026-04-19T06:15:17.004Z</time></trkpt><trkpt lat="45.772317507889795" lon="11.718404365770136"><ele>133.0</ele><time>2026-04-19T06:15:22.003Z</time></trkpt><trkpt lat="45.7722670473168" lon="11.718325343520506"><ele>133.0</ele><time>2026-04-19T06:15:28.004Z</time></trkpt><trkpt lat="45.772222918035425" lon="11.718249955903978"><ele>133.0</ele><time>2026-04-19T06:15:33.004Z</time></trkpt><trkpt lat="45.772177275255125" lon="11.718187331206696"><ele>133.0</ele><time>2026-04-19T06:15:37.004Z</time></trkpt><trkpt lat="45.77213201809047" lon="11.718123730380105"><ele>133.0</ele><time>2026-04-19T06:15:41.004Z</time></trkpt><trkpt lat="45.77207969970779" lon="11.718063504941938"><ele>133.0</ele><time>2026-04-19T06:15:45.003Z</time></trkpt><trkpt lat="45.77203717252474" lon="11.717976744903272"><ele>133.0</ele><time>2026-04-19T06:15:50.003Z</time></trkpt><trkpt lat="45.771999885431036" lon="11.717883065082436"><ele>133.0</ele><time>2026-04-19T06:15:55.003Z</time></trkpt><trkpt lat="45.77195932835491" lon="11.71779528807303"><ele>133.0</ele><time>2026-04-19T06:16:00.003Z</time></trkpt><trkpt lat="45.771936256772" lon="11.71769196793673"><ele>133.0</ele><time>2026-04-19T06:16:05.003Z</time></trkpt><trkpt lat="45.77191743462821" lon="11.717597623778659"><ele>133.0</ele><time>2026-04-19T06:16:10.003Z</time></trkpt><trkpt lat="45.77187320745345" lon="11.717532147699531"><ele>133.0</ele><time>2026-04-19T06:16:16.003Z</time></trkpt><trkpt lat="45.7718439978851" lon="11.717447451022599"><ele>133.0</ele><time>2026-04-19T06:16:29.003Z</time></trkpt><trkpt lat="45.77182348427276" lon="11.717353398673044"><ele>133.0</ele><time>2026-04-19T06:16:35.003Z</time></trkpt><trkpt lat="45.7718133768183" lon="11.717253405670268"><ele>133.0</ele><time>2026-04-19T06:16:41.003Z</time></trkpt><trkpt lat="45.77182591505165" lon="11.717145239609406"><ele>133.0</ele><time>2026-04-19T06:16:46.003Z</time></trkpt><trkpt lat="45.771846957794466" lon="11.717048766282739"><ele>133.0</ele><time>2026-04-19T06:16:51.003Z</time></trkpt><trkpt lat="45.77187264263683" lon="11.716958326179288"><ele>133.0</ele><time>2026-04-19T06:16:56.003Z</time></trkpt><trkpt lat="45.771893618344286" lon="11.716865878668516"><ele>133.0</ele><time>2026-04-19T06:17:02.003Z</time></trkpt><trkpt lat="45.7719092397249" lon="11.716774465857764"><ele>133.0</ele><time>2026-04-19T06:17:07.003Z</time></trkpt><trkpt lat="45.77186129798608" lon="11.716695555281207"><ele>133.0</ele><time>2026-04-19T06:17:14.003Z</time></trkpt><trkpt lat="45.7717932621294" lon="11.716664831514692"><ele>133.0</ele><time>2026-04-19T06:17:20.003Z</time></trkpt><trkpt lat="45.77172425974611" lon="11.716638223156995"><ele>132.71428571428572</ele><time>2026-04-19T06:17:25.004Z</time></trkpt><trkpt lat="45.77165182373488" lon="11.716615718735259"><ele>132.42857142857144</ele><time>2026-04-19T06:17:30.003Z</time></trkpt><trkpt lat="45.771581516509215" lon="11.716585308636295"><ele>132.14285714285714</ele><time>2026-04-19T06:17:35.003Z</time></trkpt><trkpt lat="45.77151557293759" lon="11.716540124930782"><ele>131.85714285714286</ele><time>2026-04-19T06:17:40.003Z</time></trkpt><trkpt lat="45.7714536503162" lon="11.716496194948052"><ele>131.57142857142858</ele><time>2026-04-19T06:17:45.003Z</time></trkpt><trkpt lat="45.77139965992173" lon="11.716446218862128"><ele>131.28571428571428</ele><time>2026-04-19T06:17:50.003Z</time></trkpt><trkpt lat="45.77134148582165" lon="11.716388184552013"><ele>131.0</ele><time>2026-04-19T06:17:55.003Z</time></trkpt><trkpt lat="45.771275285767516" lon="11.716345992312636"><ele>131.0</ele><time>2026-04-19T06:18:00.003Z</time></trkpt><trkpt lat="45.77122192206815" lon="11.716291148392987"><ele>131.0</ele><time>2026-04-19T06:18:06.003Z</time></trkpt><trkpt lat="45.771150534266" lon="11.716252935883324"><ele>131.0</ele><time>2026-04-19T06:18:12.003Z</time></trkpt><trkpt lat="45.77110024514934" lon="11.71618496199277"><ele>131.0</ele><time>2026-04-19T06:18:17.003Z</time></trkpt><trkpt lat="45.771033897462175" lon="11.716145576721136"><ele>131.0</ele><time>2026-04-19T06:18:23.003Z</time></trkpt><trkpt lat="45.77103136915407" lon="11.716051393820747"><ele>131.0</ele><time>2026-04-19T06:18:28.003Z</time></trkpt><trkpt lat="45.77102228984449" lon="11.715945528974032"><ele>131.0</ele><time>2026-04-19T06:18:34.003Z</time></trkpt><trkpt lat="45.77103490421886" lon="11.715843334799532"><ele>130.71428571428572</ele><time>2026-04-19T06:18:39.003Z</time></trkpt><trkpt lat="45.771029568449066" lon="11.71574283942929"><ele>130.42857142857144</ele><time>2026-04-19T06:18:44.003Z</time></trkpt><trkpt lat="45.77102701689105" lon="11.715630909549677"><ele>130.14285714285714</ele><time>2026-04-19T06:18:50.002Z</time></trkpt><trkpt lat="45.77104056610336" lon="11.715534363789017"><ele>129.85714285714286</ele><time>2026-04-19T06:18:56.002Z</time></trkpt><trkpt lat="45.77104699991387" lon="11.715436526883853"><ele>129.57142857142856</ele><time>2026-04-19T06:19:01.002Z</time></trkpt><trkpt lat="45.771056494694456" lon="11.715339918777808"><ele>129.28571428571428</ele><time>2026-04-19T06:19:06.002Z</time></trkpt><trkpt lat="45.77107251446309" lon="11.715251724031086"><ele>129.0</ele><time>2026-04-19T06:19:10.002Z</time></trkpt><trkpt lat="45.771076749329374" lon="11.715158517990973"><ele>128.85714285714283</ele><time>2026-04-19T06:19:15.002Z</time></trkpt><trkpt lat="45.771081267023234" lon="11.715056420374767"><ele>128.71428571428572</ele><time>2026-04-19T06:19:20.002Z</time></trkpt><trkpt lat="45.771082468487656" lon="11.71496555506324"><ele>128.57142857142856</ele><time>2026-04-19T06:19:25.004Z</time></trkpt><trkpt lat="45.77109267908056" lon="11.714874348417657"><ele>128.42857142857142</ele><time>2026-04-19T06:19:30.004Z</time></trkpt><trkpt lat="45.771086720922206" lon="11.71477031976873"><ele>128.28571428571428</ele><time>2026-04-19T06:19:35.004Z</time></trkpt><trkpt lat="45.77109537105167" lon="11.71466376375325"><ele>128.14285714285714</ele><time>2026-04-19T06:19:41.004Z</time></trkpt><trkpt lat="45.77107692264511" lon="11.714564982202692"><ele>128.0</ele><time>2026-04-19T06:19:47.004Z</time></trkpt><trkpt lat="45.771056877752336" lon="11.714472240474763"><ele>128.14285714285714</ele><time>2026-04-19T06:19:52.004Z</time></trkpt><trkpt lat="45.7710092355393" lon="11.714407150452647"><ele>128.28571428571428</ele><time>2026-04-19T06:20:00.004Z</time></trkpt><trkpt lat="45.77094332156807" lon="11.714405408416763"><ele>128.42857142857142</ele><time>2026-04-19T06:20:06.004Z</time></trkpt><trkpt lat="45.770875601032216" lon="11.71442219773907"><ele>128.57142857142856</ele><time>2026-04-19T06:20:12.004Z</time></trkpt><trkpt lat="45.770804425743364" lon="11.714427333270509"><ele>128.71428571428572</ele><time>2026-04-19T06:20:18.004Z</time></trkpt><trkpt lat="45.77073975469464" lon="11.714442183069076"><ele>128.85714285714283</ele><time>2026-04-19T06:20:24.004Z</time></trkpt><trkpt lat="45.770677404158455" lon="11.714455627698648"><ele>129.0</ele><time>2026-04-19T06:20:29.004Z</time></trkpt><trkpt lat="45.770599786254294" lon="11.714481784710555"><ele>128.99999999999997</ele><time>2026-04-19T06:20:34.004Z</time></trkpt><trkpt lat="45.770530433818266" lon="11.714478567725253"><ele>129.0</ele><time>2026-04-19T06:20:38.004Z</time></trkpt><trkpt lat="45.770460663216106" lon="11.714501479412556"><ele>129.0</ele><time>2026-04-19T06:20:43.004Z</time></trkpt><trkpt lat="45.7704030645067" lon="11.714541467410767"><ele>129.0</ele><time>2026-04-19T06:20:49.004Z</time></trkpt><trkpt lat="45.770338285333764" lon="11.714550161928852"><ele>129.0</ele><time>2026-04-19T06:20:55.003Z</time></trkpt><trkpt lat="45.770270361448326" lon="11.714567004641285"><ele>128.99999999999997</ele><time>2026-04-19T06:20:59.003Z</time></trkpt><trkpt lat="45.77020909202468" lon="11.714604993368448"><ele>129.0</ele><time>2026-04-19T06:21:03.003Z</time></trkpt><trkpt lat="45.7701376010535" lon="11.714628216619007"><ele>128.0</ele><time>2026-04-19T06:21:08.003Z</time></trkpt><trkpt lat="45.77012062944279" lon="11.71451545659876"><ele>128.0</ele><time>2026-04-19T06:21:15.003Z</time></trkpt><trkpt lat="45.77011821251357" lon="11.714420533696696"><ele>128.0</ele><time>2026-04-19T06:21:20.003Z</time></trkpt><trkpt lat="45.770047518164596" lon="11.71437685572737"><ele>128.0</ele><time>2026-04-19T06:21:25.003Z</time></trkpt><trkpt lat="45.76999122678522" lon="11.714421258495523"><ele>128.0</ele><time>2026-04-19T06:21:33.004Z</time></trkpt><trkpt lat="45.76992382697466" lon="11.71441228567992"><ele>128.0</ele><time>2026-04-19T06:21:57.004Z</time></trkpt></trkseg></trk></gpx>